createdAt,value
2017-06-09T00:00:53.202Z,11.7
2017-06-09T00:02:11.868Z,11.7
2017-06-09T00:03:30.562Z,11.7
2017-06-09T00:04:49.256Z,11.7
2017-06-09T00:06:07.950Z,11.7
2017-06-09T00:07:26.648Z,11.6
2017-06-09T00:08:45.320Z,11.6
2017-06-09T00:10:04.024Z,11.7
2017-06-09T00:11:22.711Z,11.7
2017-06-09T00:12:41.379Z,11.7
2017-06-09T00:14:00.039Z,11.7
2017-06-09T00:15:18.717Z,11.7
2017-06-09T00:16:37.441Z,11.7
2017-06-09T00:17:56.157Z,11.6
2017-06-09T00:19:14.833Z,11.6
2017-06-09T00:20:33.511Z,11.6
2017-06-09T00:21:52.246Z,11.6
2017-06-09T00:23:10.961Z,11.7
2017-06-09T00:24:29.631Z,11.7
2017-06-09T00:25:48.338Z,11.8
2017-06-09T00:27:07.015Z,11.8
2017-06-09T00:28:25.683Z,11.8
2017-06-09T00:29:44.398Z,11.7
2017-06-09T00:31:03.091Z,11.7
2017-06-09T00:32:21.776Z,11.7
2017-06-09T00:33:40.437Z,11.7
2017-06-09T00:34:59.130Z,11.7
2017-06-09T00:36:17.848Z,11.7
2017-06-09T00:37:36.571Z,11.7
2017-06-09T00:38:55.242Z,11.7
2017-06-09T00:40:13.937Z,11.8
2017-06-09T00:41:32.605Z,11.8
2017-06-09T00:42:51.310Z,11.8
2017-06-09T00:44:09.976Z,11.9
2017-06-09T00:45:28.651Z,12
2017-06-09T00:46:47.414Z,12
2017-06-09T00:48:06.130Z,11.9
2017-06-09T00:49:24.803Z,11.8
2017-06-09T00:50:43.467Z,11.7
2017-06-09T00:52:02.141Z,11.6
2017-06-09T00:53:20.836Z,11.5
2017-06-09T00:54:39.560Z,11.5
2017-06-09T00:55:58.282Z,11.6
2017-06-09T00:57:16.972Z,11.5
2017-06-09T00:58:35.708Z,11.4
2017-06-09T00:59:54.394Z,11.4
2017-06-09T01:01:13.061Z,11.4
2017-06-09T01:02:31.732Z,11.4
2017-06-09T01:03:50.430Z,11.4
2017-06-09T01:05:09.128Z,11.3
2017-06-09T01:06:27.799Z,11.3
2017-06-09T01:07:46.463Z,11.3
2017-06-09T01:09:05.175Z,11.2
2017-06-09T01:10:23.911Z,11.3
2017-06-09T01:11:42.600Z,11.2
2017-06-09T01:13:01.325Z,11.3
2017-06-09T01:14:20.059Z,11.2
2017-06-09T01:15:38.794Z,11.2
2017-06-09T01:16:57.456Z,11.1
2017-06-09T01:18:16.151Z,11
2017-06-09T01:19:34.831Z,11
2017-06-09T01:20:53.516Z,11
2017-06-09T01:22:12.187Z,10.9
2017-06-09T01:23:30.850Z,10.9
2017-06-09T01:24:49.582Z,10.9
2017-06-09T01:26:08.274Z,10.9
2017-06-09T01:27:26.947Z,10.8
2017-06-09T01:28:45.669Z,10.8
2017-06-09T01:30:04.335Z,10.8
2017-06-09T01:31:23.005Z,10.8
2017-06-09T01:32:41.723Z,10.7
2017-06-09T01:34:00.451Z,10.7
2017-06-09T01:35:19.161Z,10.7
2017-06-09T01:36:37.878Z,10.6
2017-06-09T01:37:56.593Z,10.6
2017-06-09T01:39:15.323Z,10.6
2017-06-09T01:40:34.028Z,10.6
2017-06-09T01:41:52.742Z,10.5
2017-06-09T01:43:11.417Z,10.5
2017-06-09T01:44:30.142Z,10.5
2017-06-09T01:45:48.906Z,10.5
2017-06-09T01:47:07.574Z,10.5
2017-06-09T01:48:26.242Z,10.5
2017-06-09T01:49:44.930Z,10.5
2017-06-09T01:51:03.610Z,10.5
2017-06-09T01:52:22.336Z,10.4
2017-06-09T01:53:41.006Z,10.3
2017-06-09T01:54:59.700Z,10.3
2017-06-09T01:56:18.393Z,10.2
2017-06-09T01:57:37.109Z,10.2
2017-06-09T01:58:55.774Z,10.1
2017-06-09T02:00:14.458Z,10.1
2017-06-09T02:01:33.137Z,10.1
2017-06-09T02:02:51.822Z,10.1
2017-06-09T02:04:10.491Z,10.1
2017-06-09T02:05:29.167Z,10
2017-06-09T02:06:47.858Z,10
2017-06-09T02:08:06.587Z,10
2017-06-09T02:09:25.298Z,10.1
2017-06-09T02:10:43.997Z,10.1
2017-06-09T02:12:02.684Z,10.1
2017-06-09T02:13:21.347Z,10.1
2017-06-09T02:14:40.011Z,10.1
2017-06-09T02:15:58.685Z,10.1
2017-06-09T02:17:17.406Z,10.1
2017-06-09T02:18:36.075Z,10.1
2017-06-09T02:19:54.785Z,10.1
2017-06-09T02:21:13.479Z,10.1
2017-06-09T02:22:32.162Z,10.1
2017-06-09T02:23:50.877Z,10
2017-06-09T02:25:09.546Z,9.9
2017-06-09T02:26:28.207Z,9.9
2017-06-09T02:27:46.874Z,9.9
2017-06-09T02:29:05.567Z,10
2017-06-09T02:30:24.230Z,10
2017-06-09T02:31:42.952Z,10
2017-06-09T02:33:01.681Z,10
2017-06-09T02:34:20.354Z,10.1
2017-06-09T02:35:39.057Z,10.1
2017-06-09T02:36:57.792Z,10.1
2017-06-09T02:38:16.466Z,10.1
2017-06-09T02:39:35.167Z,10.1
2017-06-09T02:40:53.852Z,10
2017-06-09T02:42:12.559Z,10
2017-06-09T02:43:31.240Z,10.1
2017-06-09T02:44:49.926Z,10.1
2017-06-09T02:46:08.588Z,10.1
2017-06-09T02:47:27.310Z,10
2017-06-09T02:48:46.049Z,10
2017-06-09T02:50:04.712Z,10.1
2017-06-09T02:51:23.432Z,10.1
2017-06-09T02:52:42.107Z,10.1
2017-06-09T02:54:00.823Z,10
2017-06-09T02:55:19.500Z,10
2017-06-09T02:56:38.176Z,10
2017-06-09T02:57:56.851Z,10
2017-06-09T02:59:15.605Z,10
2017-06-09T03:00:34.272Z,10.1
2017-06-09T03:01:52.945Z,10.2
2017-06-09T03:03:11.630Z,10.2
2017-06-09T03:04:30.327Z,10.3
2017-06-09T03:05:49.026Z,10.4
2017-06-09T03:07:07.751Z,10.4
2017-06-09T03:08:26.448Z,10.4
2017-06-09T03:09:45.197Z,10.4
2017-06-09T03:11:03.888Z,10.4
2017-06-09T03:12:22.560Z,10.3
2017-06-09T03:13:41.223Z,10.3
2017-06-09T03:14:59.897Z,10.3
2017-06-09T03:16:18.601Z,10.3
2017-06-09T03:17:37.302Z,10.3
2017-06-09T03:18:55.996Z,10.3
2017-06-09T03:20:14.695Z,10.4
2017-06-09T03:21:33.363Z,10.4
2017-06-09T03:22:52.039Z,10.4
2017-06-09T03:24:10.706Z,10.4
2017-06-09T03:25:29.447Z,10.4
2017-06-09T03:26:48.161Z,10.3
2017-06-09T03:28:06.832Z,10.3
2017-06-09T03:29:25.558Z,10.3
2017-06-09T03:30:44.261Z,10.3
2017-06-09T03:32:02.956Z,10.3
2017-06-09T03:33:21.623Z,10.4
2017-06-09T03:34:40.339Z,10.4
2017-06-09T03:35:59.079Z,10.4
2017-06-09T03:37:17.761Z,10.4
2017-06-09T03:38:36.484Z,10.5
2017-06-09T03:39:55.208Z,10.5
2017-06-09T03:41:13.952Z,10.6
2017-06-09T03:42:32.622Z,10.7
2017-06-09T03:43:51.337Z,10.8
2017-06-09T03:45:10.023Z,10.9
2017-06-09T03:46:28.698Z,10.9
2017-06-09T03:47:47.399Z,11
2017-06-09T03:49:06.061Z,11.1
2017-06-09T03:50:24.780Z,11.3
2017-06-09T03:51:43.476Z,11.3
2017-06-09T03:53:02.140Z,11.4
2017-06-09T03:54:20.825Z,11.4
2017-06-09T03:55:39.498Z,11.4
2017-06-09T03:56:58.179Z,11.5
2017-06-09T03:58:16.843Z,11.5
2017-06-09T03:59:35.565Z,11.6
2017-06-09T04:00:54.229Z,11.6
2017-06-09T04:02:12.990Z,11.6
2017-06-09T04:03:31.664Z,11.6
2017-06-09T04:04:50.329Z,11.6
2017-06-09T04:06:09.029Z,11.6
2017-06-09T04:07:27.751Z,11.7
2017-06-09T04:08:46.478Z,11.8
2017-06-09T04:10:05.148Z,11.8
2017-06-09T04:11:23.861Z,11.9
2017-06-09T04:12:42.582Z,12
2017-06-09T04:14:01.316Z,12.1
2017-06-09T04:15:19.987Z,12.2
2017-06-09T04:16:38.654Z,12.2
2017-06-09T04:17:57.409Z,12.3
2017-06-09T04:19:16.091Z,12.4
2017-06-09T04:20:34.763Z,12.4
2017-06-09T04:21:53.431Z,12.4
2017-06-09T04:23:12.166Z,12.4
2017-06-09T04:24:30.883Z,12.4
2017-06-09T04:25:49.562Z,12.5
2017-06-09T04:27:08.254Z,12.5
2017-06-09T04:28:26.944Z,12.6
2017-06-09T04:29:45.632Z,12.7
2017-06-09T04:31:04.366Z,12.7
2017-06-09T04:32:23.112Z,12.7
2017-06-09T04:33:41.867Z,12.7
2017-06-09T04:35:00.566Z,12.8
2017-06-09T04:36:19.241Z,12.8
2017-06-09T04:37:37.937Z,12.8
2017-06-09T04:38:56.636Z,12.7
2017-06-09T04:40:15.332Z,12.7
2017-06-09T04:41:34.020Z,12.6
2017-06-09T04:42:52.695Z,12.6
2017-06-09T04:44:11.401Z,12.5
2017-06-09T04:45:30.105Z,12.5
2017-06-09T04:46:48.828Z,12.5
2017-06-09T04:48:07.537Z,12.5
2017-06-09T04:49:26.236Z,12.5
2017-06-09T04:50:44.938Z,12.5
2017-06-09T04:52:03.641Z,12.5
2017-06-09T04:53:22.422Z,12.5
2017-06-09T04:54:41.137Z,12.5
2017-06-09T04:55:59.855Z,12.5
2017-06-09T04:57:18.567Z,12.5
2017-06-09T04:58:37.310Z,12.4
2017-06-09T04:59:56.009Z,12.4
2017-06-09T05:01:14.707Z,12.4
2017-06-09T05:02:33.387Z,12.5
2017-06-09T05:03:52.065Z,12.5
2017-06-09T05:05:10.767Z,12.5
2017-06-09T05:06:29.435Z,12.5
2017-06-09T05:07:48.099Z,12.5
2017-06-09T05:09:06.760Z,12.5
2017-06-09T05:10:25.449Z,12.6
2017-06-09T05:11:44.153Z,12.6
2017-06-09T05:13:02.824Z,12.7
2017-06-09T05:14:21.533Z,12.7
2017-06-09T05:15:40.215Z,12.8
2017-06-09T05:16:58.910Z,12.9
2017-06-09T05:18:17.585Z,13
2017-06-09T05:19:36.280Z,13
2017-06-09T05:20:54.960Z,13.2
2017-06-09T05:22:13.680Z,13.1
2017-06-09T05:23:32.399Z,13.1
2017-06-09T05:24:51.063Z,13.2
2017-06-09T05:26:09.744Z,13.2
2017-06-09T05:27:28.429Z,13.2
2017-06-09T05:28:47.121Z,13.3
2017-06-09T05:30:05.824Z,13.4
2017-06-09T05:31:24.549Z,13.5
2017-06-09T05:32:43.221Z,13.6
2017-06-09T05:34:01.888Z,13.8
2017-06-09T05:35:20.580Z,13.9
2017-06-09T05:36:39.259Z,13.9
2017-06-09T05:37:57.929Z,14
2017-06-09T05:39:16.597Z,14.2
2017-06-09T05:40:35.318Z,14.5
2017-06-09T05:41:54.036Z,14.6
2017-06-09T05:43:12.736Z,14.7
2017-06-09T05:44:31.399Z,14.7
2017-06-09T05:45:50.084Z,14.8
2017-06-09T05:47:08.776Z,14.9
2017-06-09T05:48:27.468Z,14.9
2017-06-09T05:49:46.134Z,15
2017-06-09T05:51:04.798Z,15.1
2017-06-09T05:52:23.502Z,15.3
2017-06-09T05:53:42.169Z,15.3
2017-06-09T05:55:00.839Z,15.4
2017-06-09T05:56:19.557Z,15.5
2017-06-09T05:57:38.242Z,15.7
2017-06-09T05:58:56.916Z,15.8
2017-06-09T06:00:15.580Z,15.9
2017-06-09T06:01:34.313Z,16
2017-06-09T06:02:53.046Z,16.1
2017-06-09T06:04:11.766Z,16.2
2017-06-09T06:05:30.477Z,16.3
2017-06-09T06:06:49.191Z,16.4
2017-06-09T06:08:07.877Z,16.4
2017-06-09T06:09:26.562Z,16.5
2017-06-09T06:10:45.230Z,16.6
2017-06-09T06:12:03.955Z,16.6
2017-06-09T06:13:22.674Z,16.8
2017-06-09T06:14:41.380Z,16.8
2017-06-09T06:16:00.048Z,16.9
2017-06-09T06:17:18.722Z,16.9
2017-06-09T06:18:37.454Z,17
2017-06-09T06:19:56.156Z,17.2
2017-06-09T06:21:14.870Z,17.3
2017-06-09T06:22:33.560Z,17.4
2017-06-09T06:23:52.292Z,17.4
2017-06-09T06:25:10.890Z,17.5
2017-06-09T06:26:29.563Z,17.6
2017-06-09T06:27:48.225Z,17.7
2017-06-09T06:29:06.908Z,17.8
2017-06-09T06:30:25.626Z,17.9
2017-06-09T06:31:44.341Z,18.1
2017-06-09T06:33:03.039Z,18.3
2017-06-09T06:34:21.721Z,18.4
2017-06-09T06:35:40.436Z,18.5
2017-06-09T06:36:59.155Z,18.7
2017-06-09T06:38:17.817Z,18.8
2017-06-09T06:39:36.504Z,19
2017-06-09T06:40:55.211Z,19.1
2017-06-09T06:42:13.960Z,19.2
2017-06-09T06:43:32.678Z,19.4
2017-06-09T06:44:51.369Z,19.5
2017-06-09T06:46:10.039Z,19.6
2017-06-09T06:47:28.704Z,19.5
2017-06-09T06:48:47.407Z,19.5
2017-06-09T06:50:06.118Z,19.4
2017-06-09T06:51:24.814Z,19.4
2017-06-09T06:52:43.479Z,19.4
2017-06-09T06:54:02.151Z,19.4
2017-06-09T06:55:20.852Z,19.4
2017-06-09T06:56:39.565Z,19.4
2017-06-09T06:57:58.279Z,19.5
2017-06-09T06:59:16.998Z,19.6
2017-06-09T07:00:35.681Z,19.6
2017-06-09T07:01:54.407Z,19.7
2017-06-09T07:03:13.073Z,19.8
2017-06-09T07:04:31.804Z,19.8
2017-06-09T07:05:50.493Z,19.8
2017-06-09T07:07:09.181Z,19.8
2017-06-09T07:08:27.848Z,19.9
2017-06-09T07:09:46.563Z,19.9
2017-06-09T07:11:05.291Z,19.8
2017-06-09T07:12:24.019Z,19.9
2017-06-09T07:13:42.707Z,19.8
2017-06-09T07:15:01.424Z,19.8
2017-06-09T07:16:20.172Z,19.9
2017-06-09T07:17:38.860Z,20
2017-06-09T07:18:57.559Z,20
2017-06-09T07:20:16.246Z,20
2017-06-09T07:21:34.954Z,20.1
2017-06-09T07:22:53.623Z,20.2
2017-06-09T07:24:12.349Z,20.3
2017-06-09T07:25:31.014Z,20.3
2017-06-09T07:26:49.685Z,20.3
2017-06-09T07:28:08.406Z,20.3
2017-06-09T07:29:27.068Z,20.4
2017-06-09T07:30:45.729Z,20.4
2017-06-09T07:32:04.403Z,20.5
2017-06-09T07:33:23.095Z,20.5
2017-06-09T07:34:41.808Z,20.5
2017-06-09T07:36:00.527Z,20.6
2017-06-09T07:37:19.203Z,20.7
2017-06-09T07:38:37.873Z,20.7
2017-06-09T07:39:56.567Z,20.8
2017-06-09T07:41:15.234Z,20.8
2017-06-09T07:42:33.960Z,20.8
2017-06-09T07:43:52.624Z,20.9
2017-06-09T07:45:11.348Z,20.9
2017-06-09T07:46:30.048Z,20.9
2017-06-09T07:47:48.723Z,20.9
2017-06-09T07:49:07.469Z,20.9
2017-06-09T07:50:26.156Z,21
2017-06-09T07:51:44.903Z,21
2017-06-09T07:53:03.580Z,21
2017-06-09T07:54:22.251Z,21
2017-06-09T07:55:40.919Z,21
2017-06-09T07:56:59.606Z,21
2017-06-09T07:58:18.284Z,21.1
2017-06-09T07:59:36.948Z,21.1
2017-06-09T08:00:55.611Z,21.1
2017-06-09T08:02:14.278Z,21.2
2017-06-09T08:03:32.967Z,21.2
2017-06-09T08:04:51.678Z,21.3
2017-06-09T08:06:10.344Z,21.3
2017-06-09T08:07:29.079Z,21.3
2017-06-09T08:08:47.776Z,21.4
2017-06-09T08:10:06.492Z,21.4
2017-06-09T08:11:25.161Z,21.3
2017-06-09T08:12:43.855Z,21.3
2017-06-09T08:14:02.567Z,21.5
2017-06-09T08:15:21.246Z,21.5
2017-06-09T08:16:39.942Z,21.6
2017-06-09T08:17:58.611Z,21.6
2017-06-09T08:19:17.369Z,21.7
2017-06-09T08:20:36.039Z,21.8
2017-06-09T08:21:54.721Z,22
2017-06-09T08:23:13.396Z,22.2
2017-06-09T08:24:32.071Z,22.3
2017-06-09T08:25:50.735Z,22.5
2017-06-09T08:27:09.400Z,22.7
2017-06-09T08:28:28.074Z,22.8
2017-06-09T08:29:46.754Z,23
2017-06-09T08:31:05.454Z,23.2
2017-06-09T08:32:24.170Z,23.2
2017-06-09T08:33:42.846Z,23.3
2017-06-09T08:35:01.595Z,23.4
2017-06-09T08:36:20.328Z,23.4
2017-06-09T08:37:39.026Z,23.4
2017-06-09T08:38:57.733Z,23.6
2017-06-09T08:40:16.482Z,23.7
2017-06-09T08:41:35.164Z,23.7
2017-06-09T08:42:53.848Z,23.8
2017-06-09T08:44:12.570Z,24
2017-06-09T08:45:31.289Z,24.4
2017-06-09T08:46:49.974Z,24.8
2017-06-09T08:48:08.642Z,24.9
2017-06-09T08:49:27.371Z,24.9
2017-06-09T08:50:46.073Z,25
2017-06-09T08:52:04.798Z,25.2
2017-06-09T08:53:23.472Z,25.5
2017-06-09T08:54:42.153Z,25.7
2017-06-09T08:56:00.854Z,25.8
2017-06-09T08:57:19.572Z,25.8
2017-06-09T08:58:38.241Z,25.9
2017-06-09T08:59:56.916Z,25.9
2017-06-09T09:01:15.627Z,25.9
2017-06-09T09:02:34.293Z,25.8
2017-06-09T09:03:52.959Z,25.7
2017-06-09T09:05:11.624Z,25.7
2017-06-09T09:06:30.327Z,25.9
2017-06-09T09:07:49.063Z,26.2
2017-06-09T09:09:07.757Z,26.1
2017-06-09T09:10:26.449Z,25.9
2017-06-09T09:11:45.140Z,25.8
2017-06-09T09:13:03.891Z,25.7
2017-06-09T09:14:22.567Z,25.7
2017-06-09T09:15:41.233Z,25.7
2017-06-09T09:16:59.962Z,25.5
2017-06-09T09:18:18.626Z,25.6
2017-06-09T09:19:37.352Z,25.6
2017-06-09T09:20:56.062Z,25.6
2017-06-09T09:22:14.755Z,25.6
2017-06-09T09:23:33.465Z,25.6
2017-06-09T09:24:52.170Z,25.7
2017-06-09T09:26:10.842Z,25.6
2017-06-09T09:27:29.591Z,25.6
2017-06-09T09:28:48.264Z,25.7
2017-06-09T09:30:06.925Z,25.7
2017-06-09T09:31:25.595Z,25.9
2017-06-09T09:32:44.328Z,26.2
2017-06-09T09:34:02.995Z,26.2
2017-06-09T09:35:21.659Z,26.1
2017-06-09T09:36:40.344Z,26.1
2017-06-09T09:37:59.103Z,26.2
2017-06-09T09:39:17.767Z,26.4
2017-06-09T09:40:36.430Z,26.5
2017-06-09T09:41:55.152Z,26.5
2017-06-09T09:43:13.834Z,26.5
2017-06-09T09:44:32.545Z,26.4
2017-06-09T09:45:51.266Z,26.5
2017-06-09T09:47:09.945Z,26.5
2017-06-09T09:48:28.619Z,26.6
2017-06-09T09:49:47.312Z,26.8
2017-06-09T09:51:05.997Z,26.8
2017-06-09T09:52:24.668Z,26.5
2017-06-09T09:53:43.367Z,26.6
2017-06-09T09:55:02.091Z,26.7
2017-06-09T09:56:20.773Z,26.7
2017-06-09T09:57:39.446Z,26.7
2017-06-09T09:58:58.136Z,26.8
2017-06-09T10:00:16.814Z,26.8
2017-06-09T10:01:35.487Z,26.7
2017-06-09T10:02:54.208Z,26.8
2017-06-09T10:04:12.913Z,26.9
2017-06-09T10:05:31.629Z,27
2017-06-09T10:06:50.347Z,27
2017-06-09T10:08:09.041Z,26.9
2017-06-09T10:09:27.753Z,26.9
2017-06-09T10:10:46.424Z,27
2017-06-09T10:12:05.087Z,27.1
2017-06-09T10:13:23.833Z,27.3
2017-06-09T10:14:42.574Z,27.2
2017-06-09T10:16:01.285Z,27.1
2017-06-09T10:17:19.957Z,27
2017-06-09T10:18:38.622Z,26.9
2017-06-09T10:19:57.353Z,26.8
2017-06-09T10:21:16.030Z,26.9
2017-06-09T10:22:34.714Z,27
2017-06-09T10:23:53.381Z,27
2017-06-09T10:25:12.112Z,27
2017-06-09T10:26:30.822Z,27
2017-06-09T10:27:49.523Z,27.2
2017-06-09T10:29:08.254Z,27.3
2017-06-09T10:30:26.993Z,27.3
2017-06-09T10:31:45.710Z,27.5
2017-06-09T10:33:04.419Z,27.7
2017-06-09T10:34:23.118Z,27.9
2017-06-09T10:35:41.825Z,28.1
2017-06-09T10:37:00.486Z,28.2
2017-06-09T10:38:19.166Z,28.1
2017-06-09T10:39:37.833Z,28.2
2017-06-09T10:40:56.503Z,28.2
2017-06-09T10:42:15.176Z,28.1
2017-06-09T10:43:33.886Z,28
2017-06-09T10:44:52.600Z,28
2017-06-09T10:46:11.326Z,27.9
2017-06-09T10:47:29.987Z,27.9
2017-06-09T10:48:48.653Z,28
2017-06-09T10:50:07.399Z,28
2017-06-09T10:51:26.108Z,28
2017-06-09T10:52:44.836Z,27.9
2017-06-09T10:54:03.523Z,27.8
2017-06-09T10:55:22.198Z,27.8
2017-06-09T10:56:40.889Z,27.8
2017-06-09T10:57:59.566Z,27.5
2017-06-09T10:59:18.291Z,27.5
2017-06-09T11:00:37.004Z,27.3
2017-06-09T11:01:55.712Z,27.2
2017-06-09T11:03:14.376Z,27
2017-06-09T11:04:33.042Z,26.8
2017-06-09T11:05:51.714Z,26.5
2017-06-09T11:07:10.412Z,26.6
2017-06-09T11:08:29.124Z,26.6
2017-06-09T11:09:47.828Z,26.5
2017-06-09T11:11:06.533Z,26.6
2017-06-09T11:12:25.265Z,26.7
2017-06-09T11:13:43.993Z,26.7
2017-06-09T11:15:02.660Z,26.6
2017-06-09T11:16:21.381Z,26.5
2017-06-09T11:17:40.108Z,26.5
2017-06-09T11:18:58.786Z,26.5
2017-06-09T11:20:17.452Z,26.6
2017-06-09T11:21:36.131Z,26.5
2017-06-09T11:22:54.807Z,26.7
2017-06-09T11:24:13.467Z,26.8
2017-06-09T11:25:32.170Z,26.8
2017-06-09T11:26:50.840Z,26.8
2017-06-09T11:28:09.570Z,27.1
2017-06-09T11:29:28.247Z,27.1
2017-06-09T11:30:46.912Z,27.3
2017-06-09T11:32:05.609Z,27.2
2017-06-09T11:33:24.282Z,27
2017-06-09T11:34:43.019Z,27
2017-06-09T11:36:01.697Z,26.9
2017-06-09T11:37:20.368Z,26.8
2017-06-09T11:38:39.148Z,26.8
2017-06-09T11:39:57.818Z,26.8
2017-06-09T11:41:16.484Z,26.9
2017-06-09T11:42:35.185Z,26.8
2017-06-09T11:43:53.876Z,26.7
2017-06-09T11:45:12.563Z,26.5
2017-06-09T11:46:31.225Z,26.5
2017-06-09T11:47:49.918Z,26.6
2017-06-09T11:49:08.626Z,26.6
2017-06-09T11:50:27.347Z,26.6
2017-06-09T11:51:46.064Z,26.6
2017-06-09T11:53:04.734Z,26.8
2017-06-09T11:54:23.415Z,26.9
2017-06-09T11:55:42.091Z,27.1
2017-06-09T11:57:00.761Z,27
2017-06-09T11:58:19.423Z,27.2
2017-06-09T11:59:38.160Z,27.5
2017-06-09T12:00:56.825Z,27.5
2017-06-09T12:02:15.485Z,27.5
2017-06-09T12:03:34.174Z,27.6
2017-06-09T12:04:52.864Z,27.5
2017-06-09T12:06:11.561Z,27.3
2017-06-09T12:07:30.228Z,27.1
2017-06-09T12:08:48.919Z,26.9
2017-06-09T12:10:07.632Z,27
2017-06-09T12:11:26.303Z,27.3
2017-06-09T12:12:45.019Z,27.5
2017-06-09T12:14:03.684Z,27.6
2017-06-09T12:15:22.442Z,27.9
2017-06-09T12:16:41.109Z,27.7
2017-06-09T12:17:59.801Z,27.4
2017-06-09T12:19:18.503Z,27.5
2017-06-09T12:20:37.177Z,27.6
2017-06-09T12:21:55.845Z,27.7
2017-06-09T12:23:14.566Z,28
2017-06-09T12:24:33.272Z,28
2017-06-09T12:25:51.980Z,27.8
2017-06-09T12:27:10.642Z,27.8
2017-06-09T12:28:29.315Z,28.1
2017-06-09T12:29:48.001Z,28.1
2017-06-09T12:31:06.673Z,27.7
2017-06-09T12:32:25.365Z,27.1
2017-06-09T12:33:44.115Z,26.8
2017-06-09T12:35:02.860Z,26.8
2017-06-09T12:36:21.569Z,27
2017-06-09T12:37:40.285Z,27.2
2017-06-09T12:38:58.985Z,27.5
2017-06-09T12:40:17.681Z,27.9
2017-06-09T12:41:36.379Z,28
2017-06-09T12:42:55.056Z,27.5
2017-06-09T12:44:13.725Z,27
2017-06-09T12:45:32.417Z,26.7
2017-06-09T12:46:51.104Z,26.8
2017-06-09T12:48:09.771Z,26.9
2017-06-09T12:49:28.432Z,26.9
2017-06-09T12:50:47.128Z,27
2017-06-09T12:52:05.818Z,26.8
2017-06-09T12:53:24.478Z,26.9
2017-06-09T12:54:43.140Z,26.9
2017-06-09T12:56:01.835Z,26.9
2017-06-09T12:57:20.563Z,26.9
2017-06-09T12:58:39.264Z,26.9
2017-06-09T12:59:57.933Z,26.7
2017-06-09T13:01:16.596Z,26.5
2017-06-09T13:02:35.351Z,26.4
2017-06-09T13:03:54.043Z,26.4
2017-06-09T13:05:12.760Z,26.4
2017-06-09T13:06:31.441Z,26.8
2017-06-09T13:07:50.129Z,26.9
2017-06-09T13:09:08.826Z,27.1
2017-06-09T13:10:27.512Z,27.6
2017-06-09T13:11:46.207Z,27.7
2017-06-09T13:13:04.904Z,28.2
2017-06-09T13:14:23.575Z,29
2017-06-09T13:15:42.306Z,29
2017-06-09T13:17:00.973Z,29.2
2017-06-09T13:18:19.649Z,29.4
2017-06-09T13:19:38.351Z,29.5
2017-06-09T13:20:57.017Z,29.4
2017-06-09T13:22:15.708Z,29.4
2017-06-09T13:23:34.377Z,29.2
2017-06-09T13:24:53.038Z,29
2017-06-09T13:26:11.702Z,29.2
2017-06-09T13:27:30.377Z,29.2
2017-06-09T13:28:49.111Z,29.3
2017-06-09T13:30:07.775Z,29.3
2017-06-09T13:31:26.450Z,28.9
2017-06-09T13:32:45.117Z,28.7
2017-06-09T13:34:03.825Z,28.1
2017-06-09T13:35:22.507Z,28.1
2017-06-09T13:36:41.173Z,28.5
2017-06-09T13:37:59.909Z,28.6
2017-06-09T13:39:18.613Z,28.6
2017-06-09T13:40:37.341Z,28.3
2017-06-09T13:41:56.009Z,28
2017-06-09T13:43:14.729Z,28.1
2017-06-09T13:44:33.418Z,27.9
2017-06-09T13:45:52.089Z,27.6
2017-06-09T13:47:10.757Z,27.3
2017-06-09T13:48:29.468Z,27
2017-06-09T13:49:48.161Z,26.5
2017-06-09T13:51:06.834Z,26
2017-06-09T13:52:25.555Z,25.3
2017-06-09T13:53:44.249Z,24.8
2017-06-09T13:55:02.921Z,24.5
2017-06-09T13:56:21.589Z,24.1
2017-06-09T13:57:40.259Z,24.4
2017-06-09T13:58:58.946Z,24.7
2017-06-09T14:00:17.635Z,24.5
2017-06-09T14:01:36.340Z,24.8
2017-06-09T14:02:55.053Z,24.9
2017-06-09T14:04:13.728Z,25.3
2017-06-09T14:05:32.492Z,25.5
2017-06-09T14:06:51.163Z,25.8
2017-06-09T14:08:09.834Z,25.4
2017-06-09T14:09:28.578Z,24.9
2017-06-09T14:10:47.308Z,24.5
2017-06-09T14:12:05.983Z,24.3
2017-06-09T14:13:24.690Z,24.2
2017-06-09T14:14:43.382Z,24
2017-06-09T14:16:02.075Z,23.8
2017-06-09T14:17:20.798Z,23.8
2017-06-09T14:18:39.465Z,23.6
2017-06-09T14:19:58.135Z,23.2
2017-06-09T14:21:16.810Z,22.7
2017-06-09T14:22:35.504Z,22.8
2017-06-09T14:23:54.221Z,22.9
2017-06-09T14:25:12.916Z,23.4
2017-06-09T14:26:31.599Z,23.7
2017-06-09T14:27:50.320Z,23.8
2017-06-09T14:29:09.067Z,23.8
2017-06-09T14:30:27.735Z,23.9
2017-06-09T14:31:46.403Z,23.9
2017-06-09T14:33:05.083Z,23.8
2017-06-09T14:34:23.771Z,23.9
2017-06-09T14:35:42.448Z,23.5
2017-06-09T14:37:01.203Z,23.5
2017-06-09T14:38:19.878Z,23.6
2017-06-09T14:39:38.561Z,23.5
2017-06-09T14:40:57.243Z,23.4
2017-06-09T14:42:15.933Z,23.1
2017-06-09T14:43:34.645Z,23
2017-06-09T14:44:53.317Z,22.9
2017-06-09T14:46:12.039Z,23.2
2017-06-09T14:47:30.734Z,23.2
2017-06-09T14:48:49.410Z,23.1
2017-06-09T14:50:08.075Z,23
2017-06-09T14:51:26.749Z,22.8
2017-06-09T14:52:45.442Z,22.7
2017-06-09T14:54:04.157Z,22.6
2017-06-09T14:55:22.825Z,22.6
2017-06-09T14:56:41.501Z,22.6
2017-06-09T14:58:00.256Z,22.7
2017-06-09T14:59:18.955Z,22.7
2017-06-09T15:00:37.624Z,22.6
2017-06-09T15:01:56.344Z,22.6
2017-06-09T15:03:15.072Z,22.6
2017-06-09T15:04:33.753Z,22.6
2017-06-09T15:05:52.496Z,22.5
2017-06-09T15:07:11.187Z,22.4
2017-06-09T15:08:29.864Z,22.3
2017-06-09T15:09:48.559Z,22.2
2017-06-09T15:11:07.225Z,21.8
2017-06-09T15:12:25.912Z,21.6
2017-06-09T15:13:44.632Z,21.4
2017-06-09T15:15:03.303Z,21.3
2017-06-09T15:16:21.971Z,21.1
2017-06-09T15:17:40.638Z,21.1
2017-06-09T15:18:59.312Z,21
2017-06-09T15:20:17.984Z,21.1
2017-06-09T15:21:36.675Z,20.9
2017-06-09T15:22:55.366Z,20.7
2017-06-09T15:24:14.090Z,20.4
2017-06-09T15:25:32.790Z,20.3
2017-06-09T15:26:51.510Z,20.3
2017-06-09T15:28:10.186Z,20.3
2017-06-09T15:29:28.909Z,20.4
2017-06-09T15:30:47.571Z,20.5
2017-06-09T15:32:06.237Z,20.6
2017-06-09T15:33:24.901Z,20.9
2017-06-09T15:34:43.611Z,21.4
2017-06-09T15:36:02.334Z,22.1
2017-06-09T15:37:20.998Z,23.1
2017-06-09T15:38:39.724Z,23.7
2017-06-09T15:39:58.429Z,24.3
2017-06-09T15:41:17.140Z,24.8
2017-06-09T15:42:35.807Z,24.9
2017-06-09T15:43:54.495Z,25.1
2017-06-09T15:45:13.193Z,25.3
2017-06-09T15:46:31.863Z,25.7
2017-06-09T15:47:50.568Z,25.6
2017-06-09T15:49:09.230Z,25.2
2017-06-09T15:50:27.910Z,24.9
2017-06-09T15:51:46.573Z,24.7
2017-06-09T15:53:05.298Z,24.6
2017-06-09T15:54:23.999Z,24.5
2017-06-09T15:55:42.744Z,24.6
2017-06-09T15:57:01.411Z,24.9
2017-06-09T15:58:20.077Z,25.6
2017-06-09T15:59:38.825Z,26.2
2017-06-09T16:00:57.544Z,26.2
2017-06-09T16:02:16.208Z,26.2
2017-06-09T16:03:34.874Z,25.9
2017-06-09T16:04:53.592Z,25.9
2017-06-09T16:06:12.326Z,25.2
2017-06-09T16:07:31.004Z,24.8
2017-06-09T16:08:49.681Z,24.4
2017-06-09T16:10:08.349Z,24.3
2017-06-09T16:11:27.047Z,24.3
2017-06-09T16:12:45.718Z,24.4
2017-06-09T16:14:04.427Z,24.6
2017-06-09T16:15:23.155Z,24.6
2017-06-09T16:16:41.883Z,23.9
2017-06-09T16:18:00.569Z,23.9
2017-06-09T16:19:19.231Z,24.1
2017-06-09T16:20:37.906Z,24.2
2017-06-09T16:21:56.592Z,24.5
2017-06-09T16:23:15.264Z,25.5
2017-06-09T16:24:34.014Z,26.6
2017-06-09T16:25:52.689Z,27.2
2017-06-09T16:27:11.362Z,27
2017-06-09T16:28:30.046Z,26.5
2017-06-09T16:29:48.719Z,26.7
2017-06-09T16:31:07.421Z,27
2017-06-09T16:32:26.111Z,27.9
2017-06-09T16:33:44.839Z,28.7
2017-06-09T16:35:03.556Z,30.1
2017-06-09T16:36:22.234Z,30.9
2017-06-09T16:37:40.909Z,31.1
2017-06-09T16:38:59.577Z,30.7
2017-06-09T16:40:18.251Z,30.8
2017-06-09T16:41:36.968Z,31.4
2017-06-09T16:42:55.664Z,33
2017-06-09T16:44:14.345Z,34.4
2017-06-09T16:45:33.014Z,34.4
2017-06-09T16:46:51.691Z,34.5
2017-06-09T16:48:10.382Z,34.7
2017-06-09T16:49:29.095Z,35
2017-06-09T16:50:47.792Z,35.2
2017-06-09T16:52:06.475Z,35
2017-06-09T16:53:25.162Z,34.8
2017-06-09T16:54:43.907Z,34.8
2017-06-09T16:56:02.602Z,34.7
2017-06-09T16:57:21.306Z,34.7
2017-06-09T16:58:39.994Z,34.8
2017-06-09T16:59:58.663Z,34.8
2017-06-09T17:01:17.420Z,34.8
2017-06-09T17:02:36.109Z,34.9
2017-06-09T17:03:54.779Z,34.9
2017-06-09T17:05:13.477Z,34.9
2017-06-09T17:06:32.142Z,34.5
2017-06-09T17:07:50.850Z,34.3
2017-06-09T17:09:09.591Z,34.1
2017-06-09T17:10:28.255Z,32.5
2017-06-09T17:11:46.938Z,31.5
2017-06-09T17:13:05.606Z,29.8
2017-06-09T17:14:24.333Z,28.2
2017-06-09T17:15:43.021Z,27.2
2017-06-09T17:17:01.749Z,26.1
2017-06-09T17:18:20.523Z,25
2017-06-09T17:19:39.241Z,24.2
2017-06-09T17:20:57.914Z,23.8
2017-06-09T17:22:16.599Z,23.5
2017-06-09T17:23:35.324Z,23.3
2017-06-09T17:24:54.076Z,23.2
2017-06-09T17:26:12.769Z,23.1
2017-06-09T17:27:31.442Z,23
2017-06-09T17:28:50.121Z,22.7
2017-06-09T17:30:08.823Z,22.2
2017-06-09T17:31:27.550Z,21.8
2017-06-09T17:32:46.215Z,21.8
2017-06-09T17:34:04.940Z,21.8
2017-06-09T17:35:23.625Z,21.7